createdAt,value
2022-09-15T00:04:18.629Z,15.47
2022-09-15T00:09:19.380Z,15.49
2022-09-15T00:14:20.229Z,15.50
2022-09-15T00:19:20.956Z,15.42
2022-09-15T00:24:21.718Z,15.37
2022-09-15T00:29:22.492Z,15.39
2022-09-15T00:34:23.342Z,15.41
2022-09-15T00:39:24.513Z,15.35
2022-09-15T00:44:45.742Z,15.35
2022-09-15T00:49:50.457Z,15.38
2022-09-15T00:55:11.036Z,15.38
2022-09-15T01:00:14.710Z,15.38
2022-09-15T01:05:18.926Z,15.36
2022-09-15T01:10:27.488Z,15.41
2022-09-15T01:18:59.258Z,15.41
2022-09-15T01:24:27.132Z,15.46
2022-09-15T01:30:09.907Z,15.42
2022-09-15T01:35:32.792Z,15.33
2022-09-15T01:42:26.574Z,15.26
2022-09-15T01:47:29.234Z,15.03
2022-09-15T01:52:30.059Z,14.97
2022-09-15T01:57:32.486Z,14.90
2022-09-15T02:02:38.870Z,14.78
2022-09-15T02:07:52.619Z,14.77
2022-09-15T02:13:16.307Z,14.69
2022-09-15T02:18:24.011Z,14.61
2022-09-15T02:23:34.604Z,14.61
2022-09-15T02:28:38.307Z,14.49
2022-09-15T02:33:43.420Z,14.40
2022-09-15T02:38:49.242Z,14.34
2022-09-15T02:43:50.367Z,14.24
2022-09-15T02:48:52.574Z,14.13
2022-09-15T02:53:53.953Z,14.08
2022-09-15T02:58:54.743Z,13.95
2022-09-15T03:03:55.482Z,13.78
2022-09-15T03:08:58.354Z,13.64
2022-09-15T03:14:01.466Z,13.51
2022-09-15T03:19:03.021Z,13.45
2022-09-15T03:24:03.908Z,13.31
2022-09-15T03:29:04.666Z,13.28
2022-09-15T03:34:05.420Z,13.18
2022-09-15T03:39:06.202Z,13.09
2022-09-15T03:44:06.939Z,13.00
2022-09-15T03:49:08.019Z,12.85
2022-09-15T03:54:09.876Z,12.63
2022-09-15T03:59:10.606Z,12.55
2022-09-15T04:04:12.210Z,12.35
2022-09-15T04:09:12.972Z,12.35
2022-09-15T04:14:14.107Z,12.22
2022-09-15T04:19:15.004Z,12.20
2022-09-15T04:24:16.439Z,12.23
2022-09-15T04:29:18.072Z,12.19
2022-09-15T04:34:18.834Z,12.22
2022-09-15T04:39:19.608Z,12.24
2022-09-15T04:44:20.446Z,12.12
2022-09-15T04:49:21.292Z,12.14
2022-09-15T04:54:22.677Z,12.07
2022-09-15T04:59:23.394Z,12.03
2022-09-15T05:04:24.220Z,12.10
2022-09-15T05:09:27.067Z,12.09
2022-09-15T05:14:27.789Z,12.11
2022-09-15T05:19:28.974Z,12.11
2022-09-15T05:24:29.770Z,12.02
2022-09-15T05:29:30.642Z,12.08
2022-09-15T05:34:31.393Z,11.98
2022-09-15T05:39:32.172Z,11.95
2022-09-15T05:44:32.919Z,11.97
2022-09-15T05:49:34.296Z,11.90
2022-09-15T05:54:35.030Z,11.89
2022-09-15T05:59:38.463Z,12.00
2022-09-15T06:04:40.525Z,12.08
2022-09-15T06:09:41.769Z,12.08
2022-09-15T06:14:44.348Z,12.09
2022-09-15T06:19:45.145Z,12.09
2022-09-15T06:24:46.140Z,12.05
2022-09-15T06:29:47.225Z,12.06
2022-09-15T06:34:48.020Z,12.16
2022-09-15T06:39:48.920Z,12.29
2022-09-15T06:44:49.713Z,12.39
2022-09-15T06:49:52.405Z,12.40
2022-09-15T06:54:53.126Z,12.38
2022-09-15T06:59:53.939Z,12.35
2022-09-15T07:04:54.806Z,12.35
2022-09-15T07:09:55.635Z,12.40
2022-09-15T07:14:56.373Z,12.41
2022-09-15T07:19:57.285Z,12.50
2022-09-15T07:24:58.008Z,12.71
2022-09-15T07:29:59.276Z,12.89
2022-09-15T07:35:01.386Z,12.89
2022-09-15T07:40:02.887Z,12.92
2022-09-15T07:45:04.610Z,13.15
2022-09-15T07:50:06.908Z,13.27
2022-09-15T07:55:08.786Z,13.32
2022-09-15T08:00:10.768Z,13.57
2022-09-15T08:05:14.566Z,13.99
2022-09-15T08:10:15.459Z,14.37
2022-09-15T08:15:17.228Z,14.46
2022-09-15T08:20:18.885Z,14.26
2022-09-15T08:25:19.649Z,14.20
2022-09-15T08:30:21.621Z,14.51
2022-09-15T08:35:22.368Z,14.22
2022-09-15T08:40:29.892Z,14.33
2022-09-15T08:45:44.217Z,14.50
2022-09-15T08:50:48.246Z,14.81
2022-09-15T08:55:54.593Z,15.26
2022-09-15T09:01:54.685Z,15.32
2022-09-15T09:07:32.391Z,15.34
2022-09-15T09:13:12.497Z,15.65
2022-09-15T09:25:11.656Z,15.85
2022-09-15T09:30:25.134Z,15.94
2022-09-15T09:35:45.020Z,16.13
2022-09-15T09:40:46.290Z,16.69
2022-09-15T09:45:47.175Z,17.05
2022-09-15T09:50:49.877Z,17.01
2022-09-15T09:55:52.559Z,17.08
2022-09-15T10:00:53.511Z,16.85
2022-09-15T10:06:15.685Z,17.00
2022-09-15T10:11:16.790Z,16.31
2022-09-15T10:16:18.835Z,16.33
2022-09-15T10:21:24.021Z,16.17
2022-09-15T10:26:32.520Z,15.95
2022-09-15T10:31:33.457Z,16.34
2022-09-15T10:36:35.285Z,16.38
2022-09-15T10:41:45.586Z,16.14
2022-09-15T10:50:29.782Z,15.99
2022-09-15T10:55:58.777Z,15.65
2022-09-15T11:04:25.202Z,15.77
2022-09-15T11:09:44.865Z,17.31
2022-09-15T11:15:06.277Z,17.43
2022-09-15T11:21:47.394Z,17.15
2022-09-15T11:27:12.015Z,16.56
2022-09-15T11:32:23.820Z,16.55
2022-09-15T11:37:50.280Z,16.55
2022-09-15T11:43:02.893Z,16.56
2022-09-15T11:48:18.071Z,17.30
2022-09-15T11:54:08.891Z,17.93
2022-09-15T11:59:32.175Z,18.79
2022-09-15T12:04:57.803Z,18.68
2022-09-15T12:10:12.031Z,18.46
2022-09-15T12:15:16.707Z,17.95
2022-09-15T12:20:27.473Z,18.04
2022-09-15T12:32:28.093Z,18.16
2022-09-15T12:38:14.689Z,17.78
2022-09-15T12:43:22.318Z,17.09
2022-09-15T12:48:26.859Z,16.98
2022-09-15T12:54:14.994Z,16.82
2022-09-15T12:59:16.379Z,16.46
2022-09-15T13:04:50.638Z,16.64
2022-09-15T13:10:19.390Z,16.80
2022-09-15T13:15:24.317Z,17.10
2022-09-15T13:20:32.800Z,17.58
2022-09-15T13:25:35.479Z,17.56
2022-09-15T13:30:58.049Z,18.43
2022-09-15T13:42:39.874Z,18.61
2022-09-15T13:48:02.361Z,17.88
2022-09-15T13:53:43.663Z,16.96
2022-09-15T13:59:06.607Z,17.49
2022-09-15T14:04:16.893Z,17.18
2022-09-15T14:09:23.080Z,16.94
2022-09-15T14:14:45.829Z,16.77
2022-09-15T14:19:51.606Z,16.77
2022-09-15T14:24:53.347Z,16.76
2022-09-15T14:29:57.109Z,16.91
2022-09-15T14:35:03.178Z,17.20
2022-09-15T14:40:23.025Z,17.11
2022-09-15T14:45:56.831Z,16.98
2022-09-15T14:51:08.923Z,17.06
2022-09-15T14:56:23.610Z,17.19
2022-09-15T15:03:02.977Z,16.99
2022-09-15T15:08:06.462Z,16.77
2022-09-15T15:13:15.191Z,16.58
2022-09-15T15:18:50.967Z,16.67
2022-09-15T15:23:52.940Z,16.87
2022-09-15T15:28:53.851Z,16.84
2022-09-15T15:34:04.471Z,16.77
2022-09-15T15:39:07.075Z,16.73
2022-09-15T15:44:58.248Z,16.76
2022-09-15T15:50:13.194Z,16.74
2022-09-15T15:55:23.356Z,16.92
2022-09-15T16:00:31.337Z,17.00
2022-09-15T16:05:33.037Z,16.93
2022-09-15T16:10:41.209Z,16.92
2022-09-15T16:15:43.304Z,16.70
2022-09-15T16:20:44.075Z,16.78
2022-09-15T16:25:50.459Z,16.64
2022-09-15T16:30:51.438Z,16.50
2022-09-15T16:36:07.369Z,16.32
2022-09-15T16:41:19.971Z,16.20
2022-09-15T16:46:21.391Z,16.12
2022-09-15T16:51:29.753Z,16.02
2022-09-15T16:56:32.235Z,15.94
2022-09-15T17:01:33.599Z,15.95
2022-09-15T17:06:34.551Z,15.78
2022-09-15T17:11:35.356Z,15.69
2022-09-15T17:16:36.866Z,15.61
2022-09-15T17:21:37.665Z,15.54
2022-09-15T17:26:38.669Z,15.42
2022-09-15T17:31:39.733Z,15.39
2022-09-15T17:36:40.559Z,15.41
2022-09-15T17:41:43.787Z,15.44
2022-09-15T17:46:44.772Z,15.34
2022-09-15T17:51:45.910Z,15.19
2022-09-15T17:56:46.647Z,14.89
2022-09-15T18:01:47.886Z,14.74
2022-09-15T18:06:48.700Z,14.68
2022-09-15T18:11:49.536Z,14.57
2022-09-15T18:16:50.432Z,14.62
2022-09-15T18:21:53.158Z,14.44
2022-09-15T18:26:53.938Z,14.20
2022-09-15T18:31:55.686Z,13.97
2022-09-15T18:36:58.178Z,13.88
2022-09-15T18:41:58.974Z,13.86
2022-09-15T18:46:59.775Z,13.78
2022-09-15T18:52:02.431Z,13.72
2022-09-15T18:57:03.281Z,13.65
2022-09-15T19:02:05.101Z,13.63
2022-09-15T19:07:07.182Z,13.48
2022-09-15T19:12:07.911Z,13.43
2022-09-15T19:17:08.740Z,13.38
2022-09-15T19:22:09.585Z,13.34
2022-09-15T19:27:10.554Z,13.21
2022-09-15T19:32:13.457Z,13.19
2022-09-15T19:37:18.817Z,13.01
2022-09-15T19:42:19.901Z,12.90
2022-09-15T19:47:20.735Z,12.82
2022-09-15T19:52:21.989Z,12.66
2022-09-15T19:57:23.000Z,12.51
2022-09-15T20:02:24.052Z,12.42
2022-09-15T20:07:24.910Z,12.37
2022-09-15T20:12:25.846Z,12.33
2022-09-15T20:17:27.110Z,12.29
2022-09-15T20:22:28.037Z,12.21
2022-09-15T20:27:30.332Z,12.20
2022-09-15T20:32:33.168Z,12.18
2022-09-15T20:37:37.430Z,12.19
2022-09-15T20:42:38.586Z,12.19
2022-09-15T20:47:39.325Z,12.18
2022-09-15T20:52:40.495Z,12.14
2022-09-15T20:57:41.211Z,12.19
2022-09-15T21:02:42.152Z,12.25
2022-09-15T21:07:43.500Z,12.31
2022-09-15T21:12:44.949Z,12.35
2022-09-15T21:17:45.785Z,12.38
2022-09-15T21:22:52.486Z,12.33
2022-09-15T21:27:53.378Z,12.36
2022-09-15T21:32:54.599Z,12.26
2022-09-15T21:37:58.793Z,12.25
2022-09-15T21:43:01.433Z,12.27
2022-09-15T21:48:02.262Z,12.29
2022-09-15T21:53:03.552Z,12.26
2022-09-15T21:58:04.271Z,12.24
2022-09-15T22:03:06.200Z,12.25
2022-09-15T22:08:10.710Z,12.29
2022-09-15T22:13:11.605Z,12.28
2022-09-15T22:18:12.511Z,12.34
2022-09-15T22:23:13.295Z,12.26
2022-09-15T22:28:14.044Z,12.20
2022-09-15T22:33:14.906Z,12.18
2022-09-15T22:38:15.661Z,12.18
2022-09-15T22:43:16.470Z,12.19
2022-09-15T22:48:17.199Z,12.13
2022-09-15T22:53:18.535Z,12.12
2022-09-15T22:58:19.256Z,12.07
2022-09-15T23:03:20.115Z,12.10
2022-09-15T23:08:20.854Z,12.08
2022-09-15T23:13:21.616Z,12.12
2022-09-15T23:18:22.585Z,12.14
2022-09-15T23:23:23.379Z,12.07
2022-09-15T23:28:24.165Z,12.08
2022-09-15T23:33:26.996Z,12.09
2022-09-15T23:38:27.852Z,12.10
2022-09-15T23:43:28.689Z,12.07
2022-09-15T23:48:33.104Z,12.04
2022-09-15T23:53:34.482Z,11.95
2022-09-15T23:58:35.654Z,11.92
